createdAt,value
2018-05-14T00:04:15.830Z,19.20
2018-05-14T00:09:18.462Z,19.20
2018-05-14T00:14:21.068Z,19.10
2018-05-14T00:19:26.505Z,19.10
2018-05-14T00:24:29.153Z,19.10
2018-05-14T00:29:32.653Z,19.10
2018-05-14T00:34:35.325Z,19.10
2018-05-14T00:39:37.881Z,19.10
2018-05-14T00:44:41.935Z,19.10
2018-05-14T00:49:45.275Z,19.00
2018-05-14T00:55:00.187Z,18.90
2018-05-14T01:00:02.834Z,18.80
2018-05-14T01:05:05.406Z,18.80
2018-05-14T01:10:07.983Z,18.80
2018-05-14T01:15:10.556Z,18.80
2018-05-14T01:20:13.165Z,18.80
2018-05-14T01:25:15.794Z,18.80
2018-05-14T01:30:18.387Z,18.80
2018-05-14T01:35:21.717Z,18.80
2018-05-14T01:40:25.045Z,18.90
2018-05-14T01:45:27.602Z,18.80
2018-05-14T01:50:30.198Z,18.90
2018-05-14T01:55:32.797Z,18.90
2018-05-14T02:00:36.135Z,18.90
2018-05-14T02:05:40.578Z,18.90
2018-05-14T02:10:43.158Z,19.00
2018-05-14T02:15:46.484Z,19.00
2018-05-14T02:20:49.059Z,18.90
2018-05-14T02:25:52.410Z,18.90
2018-05-14T02:30:56.981Z,18.90
2018-05-14T02:35:59.628Z,18.90
2018-05-14T02:41:05.930Z,18.90
2018-05-14T02:46:11.084Z,18.90
2018-05-14T02:51:18.427Z,18.80
2018-05-14T02:56:24.038Z,18.70
2018-05-14T03:01:26.628Z,18.70
2018-05-14T03:06:29.192Z,18.70
2018-05-14T03:11:31.792Z,18.60
2018-05-14T03:16:34.427Z,18.50
2018-05-14T03:21:37.022Z,18.40
2018-05-14T03:26:39.667Z,18.30
2018-05-14T03:31:42.222Z,18.30
2018-05-14T03:36:44.790Z,18.10
2018-05-14T03:41:50.205Z,18.00
2018-05-14T03:46:54.056Z,17.90
2018-05-14T03:51:59.593Z,17.80
2018-05-14T03:57:02.173Z,17.70
2018-05-14T04:02:25.515Z,17.70
2018-05-14T04:07:28.058Z,17.60
2018-05-14T04:12:34.381Z,17.50
2018-05-14T04:17:36.952Z,17.40
2018-05-14T04:22:42.749Z,17.40
2018-05-14T04:27:45.409Z,17.40
2018-05-14T04:32:51.772Z,17.30
2018-05-14T04:37:54.868Z,17.30
2018-05-14T04:42:57.581Z,17.30
2018-05-14T04:48:01.375Z,17.40
2018-05-14T04:53:04.891Z,17.30
2018-05-14T04:58:08.234Z,17.30
2018-05-14T05:03:10.874Z,17.20
2018-05-14T05:08:13.468Z,17.20
2018-05-14T05:13:18.145Z,17.20
2018-05-14T05:18:20.752Z,17.20
2018-05-14T05:23:23.355Z,17.30
2018-05-14T05:28:26.035Z,17.30
2018-05-14T05:33:28.642Z,17.40
2018-05-14T05:38:34.595Z,17.50
2018-05-14T05:49:32.090Z,17.80
2018-05-14T05:54:37.497Z,17.70
2018-05-14T06:05:23.200Z,18.00
2018-05-14T06:10:54.458Z,18.10
2018-05-14T06:16:20.720Z,18.20
2018-05-14T06:40:38.877Z,18.80
